Time;durP1;ratioP1;P1;durP2;ratioP2;P2;SDS_P1;SDS_P2;PMS_P1;PMS_P2;Temp;Humidity;BMP_temperature;BMP_pressure;BME280_temperature;BME280_humidity;BME280_pressure;Samples;Min_cycle;Max_cycle;Signal;HPM_P1;HPM_P2
2023/05/19 00:02:24;;;;;;;;;19.50;19.50;;;;;;;;5037075;28;10478;-81
2023/05/19 00:04:52;;;;;;;;;17.75;16.00;;;;;;;;5043603;28;10492;-82
2023/05/19 00:07:19;;;;;;;;;16.25;15.75;;;;;;;;5041217;28;10426;-82
2023/05/19 00:09:49;;;;;;;;;23.50;17.25;;;;;;;;5043386;28;10498;-81
2023/05/19 00:12:17;;;;;;;;;17.75;15.00;;;;;;;;5036611;28;11412;-81
2023/05/19 00:14:45;;;;;;;;;21.00;18.75;;;;;;;;5035059;28;10564;-85
2023/05/19 00:17:13;;;;;;;;;18.50;17.25;;;;;;;;5047070;28;10512;-82
2023/05/19 00:19:40;;;;;;;;;17.75;14.75;;;;;;;;5048830;28;10444;-79
2023/05/19 00:22:07;;;;;;;;;16.25;14.50;;;;;;;;5044935;28;10346;-81
2023/05/19 00:24:35;;;;;;;;;19.50;17.75;;;;;;;;5039832;28;10528;-81
2023/05/19 00:27:04;;;;;;;;;14.00;14.00;;;;;;;;5047652;28;10403;-80
2023/05/19 00:29:31;;;;;;;;;23.50;19.00;;;;;;;;5038730;28;10449;-81
2023/05/19 00:31:58;;;;;;;;;21.50;20.00;;;;;;;;5038497;28;10517;-81
2023/05/19 00:34:25;;;;;;;;;15.50;12.50;;;;;;;;5047915;28;10540;-81
2023/05/19 00:36:52;;;;;;;;;17.00;15.50;;;;;;;;5042718;28;10678;-80
2023/05/19 00:39:20;;;;;;;;;18.75;17.75;;;;;;;;5031468;28;10801;-81
2023/05/19 00:41:47;;;;;;;;;18.50;15.75;;;;;;;;5039913;28;10708;-82
2023/05/19 00:44:15;;;;;;;;;19.50;17.50;;;;;;;;5047980;28;10724;-81
2023/05/19 00:46:42;;;;;;;;;17.00;17.00;;;;;;;;5045405;28;10661;-82
2023/05/19 00:49:10;;;;;;;;;14.00;14.00;;;;;;;;5041092;28;10864;-81
2023/05/19 00:51:37;;;;;;;;;20.75;18.75;;;;;;;;5043742;28;10600;-82
2023/05/19 00:54:05;;;;;;;;;20.50;15.50;;;;;;;;5045425;28;10852;-82
2023/05/19 00:56:32;;;;;;;;;21.00;21.00;;;;;;;;5048163;28;10799;-82
2023/05/19 00:59:00;;;;;;;;;20.50;20.50;;;;;;;;5037672;28;10760;-81
2023/05/19 01:01:28;;;;;;;;;22.50;21.25;;;;;;;;5045114;28;10854;-83
2023/05/19 01:03:57;;;;;;;;;17.25;17.25;;;;;;;;5047686;28;11064;-84
2023/05/19 01:06:26;;;;;;;;;21.00;21.00;;;;;;;;5039611;28;10980;-82
2023/05/19 01:08:56;;;;;;;;;17.50;15.50;;;;;;;;5035633;28;10989;-82
2023/05/19 01:11:23;;;;;;;;;15.25;14.00;;;;;;;;5041493;28;11079;-83
2023/05/19 01:13:50;;;;;;;;;27.25;17.50;;;;;;;;5044127;28;11115;-83
2023/05/19 01:16:24;;;;;;;;;19.75;16.75;;;;;;;;5042786;28;11237;-80
2023/05/19 01:19:00;;;;;;;;;21.75;20.00;;;;;;;;5048208;28;11175;-83
2023/05/19 01:22:13;;;;;;;;;13.75;10.25;;;;;;;;5041741;28;11258;-83
2023/05/19 01:25:25;;;;;;;;;18.75;17.75;;;;;;;;5046075;28;11093;-83
2023/05/19 01:28:18;;;;;;;;;18.75;18.75;;;;;;;;5020800;28;11209;-83
2023/05/19 01:30:50;;;;;;;;;26.50;26.50;;;;;;;;5044490;28;11577;-83
2023/05/19 01:33:19;;;;;;;;;27.75;27.75;;;;;;;;5037889;28;11534;-81
2023/05/19 01:35:46;;;;;;;;;26.00;26.00;;;;;;;;5035545;28;11749;-82
2023/05/19 01:38:17;;;;;;;;;24.75;23.50;;;;;;;;5045303;28;11513;-82
2023/05/19 01:40:45;;;;;;;;;30.00;26.75;;;;;;;;5048836;28;11552;-82
2023/05/19 01:43:21;;;;;;;;;28.25;25.50;;;;;;;;5048004;28;11634;-81
2023/05/19 01:45:51;;;;;;;;;27.00;22.00;;;;;;;;5044570;28;11509;-81
2023/05/19 01:48:19;;;;;;;;;25.00;22.50;;;;;;;;5050517;28;11637;-82
2023/05/19 01:50:47;;;;;;;;;26.75;21.50;;;;;;;;5047252;28;11533;-82
2023/05/19 01:53:14;;;;;;;;;22.00;22.00;;;;;;;;5046589;28;11334;-82
2023/05/19 01:55:45;;;;;;;;;20.00;18.75;;;;;;;;5051246;28;11331;-81
2023/05/19 01:58:19;;;;;;;;;26.00;21.75;;;;;;;;5048252;28;11484;-82
2023/05/19 02:00:53;;;;;;;;;19.00;18.75;;;;;;;;5050661;28;11601;-82
2023/05/19 02:03:54;;;;;;;;;20.00;16.75;;;;;;;;5040578;28;11516;-82
2023/05/19 02:06:28;;;;;;;;;22.50;22.50;;;;;;;;5045562;28;11671;-81
2023/05/19 02:09:02;;;;;;;;;32.25;28.00;;;;;;;;5048627;28;11655;-84
2023/05/19 02:11:36;;;;;;;;;24.75;20.75;;;;;;;;5038485;28;11648;-81
2023/05/19 02:14:08;;;;;;;;;21.00;18.75;;;;;;;;5046617;28;11540;-83
2023/05/19 02:16:38;;;;;;;;;21.50;21.25;;;;;;;;5046274;28;11550;-82
2023/05/19 02:19:05;;;;;;;;;24.75;22.00;;;;;;;;5051282;28;11531;-81
2023/05/19 02:21:32;;;;;;;;;19.75;19.75;;;;;;;;5049695;28;11404;-81
2023/05/19 02:23:59;;;;;;;;;19.00;18.00;;;;;;;;5051056;28;11647;-81
2023/05/19 02:26:27;;;;;;;;;15.25;15.25;;;;;;;;5051372;28;11329;-81
2023/05/19 02:28:54;;;;;;;;;27.25;20.75;;;;;;;;5050485;28;11238;-81
2023/05/19 02:31:21;;;;;;;;;17.25;15.25;;;;;;;;5039263;28;11519;-82
2023/05/19 02:33:50;;;;;;;;;25.50;25.50;;;;;;;;5051030;28;11649;-82
2023/05/19 02:36:17;;;;;;;;;21.50;19.50;;;;;;;;5049782;28;11531;-82
2023/05/19 02:38:45;;;;;;;;;21.00;19.75;;;;;;;;5049516;28;11538;-81
2023/05/19 02:41:12;;;;;;;;;23.00;20.75;;;;;;;;5049982;28;11651;-82
2023/05/19 02:43:39;;;;;;;;;25.75;25.75;;;;;;;;5047247;28;11661;-83
2023/05/19 02:46:06;;;;;;;;;21.50;18.50;;;;;;;;5034629;28;11640;-81
2023/05/19 02:48:33;;;;;;;;;28.50;26.50;;;;;;;;5039146;28;11539;-82
2023/05/19 02:51:02;;;;;;;;;28.00;22.00;;;;;;;;5044514;28;11311;-81
2023/05/19 02:53:32;;;;;;;;;28.75;21.25;;;;;;;;5047041;28;12434;-83
2023/05/19 02:55:59;;;;;;;;;26.25;24.25;;;;;;;;5042187;28;11463;-83
2023/05/19 02:58:26;;;;;;;;;22.00;21.25;;;;;;;;5037378;28;11505;-83
2023/05/19 03:00:53;;;;;;;;;27.50;26.00;;;;;;;;5039296;28;11546;-83
2023/05/19 03:03:21;;;;;;;;;17.00;15.75;;;;;;;;5043466;28;11534;-82
2023/05/19 03:05:48;;;;;;;;;28.50;25.25;;;;;;;;5043753;28;11538;-84
2023/05/19 03:08:17;;;;;;;;;25.00;24.50;;;;;;;;5041102;28;11528;-83
2023/05/19 03:10:44;;;;;;;;;27.25;23.75;;;;;;;;5046349;28;11543;-83
2023/05/19 03:13:11;;;;;;;;;17.75;17.75;;;;;;;;5042341;28;11400;-84
2023/05/19 03:15:41;;;;;;;;;29.75;27.75;;;;;;;;5037186;28;11689;-84
2023/05/19 03:18:10;;;;;;;;;22.75;22.75;;;;;;;;5043456;28;11577;-81
2023/05/19 03:20:37;;;;;;;;;22.00;18.75;;;;;;;;5041645;28;11613;-83
2023/05/19 03:23:05;;;;;;;;;22.25;22.25;;;;;;;;5049727;28;11654;-82
2023/05/19 03:25:33;;;;;;;;;18.00;17.25;;;;;;;;5041329;28;11561;-81
2023/05/19 03:28:01;;;;;;;;;26.75;26.75;;;;;;;;5048854;28;11665;-81
2023/05/19 03:30:28;;;;;;;;;24.50;21.75;;;;;;;;5045427;28;11565;-81
2023/05/19 03:32:55;;;;;;;;;25.25;21.25;;;;;;;;5049380;28;12449;-81
2023/05/19 03:35:23;;;;;;;;;15.50;14.00;;;;;;;;5044459;28;11563;-82
2023/05/19 03:37:50;;;;;;;;;28.25;24.75;;;;;;;;5041648;28;11533;-83
2023/05/19 03:40:18;;;;;;;;;22.25;22.25;;;;;;;;5034226;28;11617;-81
2023/05/19 03:42:46;;;;;;;;;22.25;19.25;;;;;;;;5046323;28;11496;-80
2023/05/19 03:45:14;;;;;;;;;30.50;23.50;;;;;;;;5048844;28;11525;-82
2023/05/19 03:47:41;;;;;;;;;23.50;21.50;;;;;;;;5036571;28;12469;-80
2023/05/19 03:50:09;;;;;;;;;23.25;19.25;;;;;;;;5040048;28;12048;-82
2023/05/19 03:52:37;;;;;;;;;26.25;24.25;;;;;;;;5042697;28;11513;-83
2023/05/19 03:55:05;;;;;;;;;29.50;24.25;;;;;;;;5030870;28;11564;-83
2023/05/19 03:57:33;;;;;;;;;23.50;21.75;;;;;;;;5047635;28;11585;-84
2023/05/19 04:00:02;;;;;;;;;27.00;24.00;;;;;;;;5039202;28;11568;-81
2023/05/19 04:02:30;;;;;;;;;23.75;19.75;;;;;;;;5045212;28;11492;-81
2023/05/19 04:04:57;;;;;;;;;29.00;23.25;;;;;;;;5040002;28;11587;-82
2023/05/19 04:07:25;;;;;;;;;21.75;19.75;;;;;;;;5038340;28;11542;-82
2023/05/19 04:09:52;;;;;;;;;19.75;18.00;;;;;;;;5037636;28;11560;-81
2023/05/19 04:12:19;;;;;;;;;22.75;16.25;;;;;;;;5044216;28;11590;-83
2023/05/19 04:14:46;;;;;;;;;23.00;21.00;;;;;;;;5041221;28;11533;-82
2023/05/19 04:17:16;;;;;;;;;24.75;22.50;;;;;;;;5048340;28;11582;-78
2023/05/19 04:19:44;;;;;;;;;27.00;23.75;;;;;;;;5040165;28;11677;-79
2023/05/19 04:22:11;;;;;;;;;28.00;26.50;;;;;;;;5047349;28;11656;-84
2023/05/19 04:24:38;;;;;;;;;26.25;22.00;;;;;;;;5048843;28;11523;-84
2023/05/19 04:27:10;;;;;;;;;27.25;24.25;;;;;;;;5035501;28;11663;-87
2023/05/19 04:29:39;;;;;;;;;24.50;23.00;;;;;;;;5038466;28;11656;-82
2023/05/19 04:32:07;;;;;;;;;27.00;24.00;;;;;;;;5037260;28;11461;-83
2023/05/19 04:34:39;;;;;;;;;25.25;22.00;;;;;;;;5050897;28;11500;-83
2023/05/19 04:37:06;;;;;;;;;16.50;16.50;;;;;;;;5042519;28;11500;-83
2023/05/19 04:39:33;;;;;;;;;30.25;27.00;;;;;;;;5047894;28;11532;-83
2023/05/19 04:42:01;;;;;;;;;31.00;30.00;;;;;;;;5049520;28;11505;-82
2023/05/19 04:44:28;;;;;;;;;18.50;14.50;;;;;;;;5047758;28;11501;-83
2023/05/19 04:46:57;;;;;;;;;27.75;23.25;;;;;;;;5046977;28;11509;-83
2023/05/19 04:49:24;;;;;;;;;24.50;24.50;;;;;;;;5047932;28;11524;-83
2023/05/19 04:51:53;;;;;;;;;26.00;25.00;;;;;;;;5044978;28;11501;-83
2023/05/19 04:54:20;;;;;;;;;32.25;28.25;;;;;;;;5047521;28;11525;-83
2023/05/19 04:56:47;;;;;;;;;30.00;28.25;;;;;;;;5047650;28;11539;-83
2023/05/19 04:59:14;;;;;;;;;27.00;23.50;;;;;;;;5050255;28;11528;-81
2023/05/19 05:01:42;;;;;;;;;24.75;22.50;;;;;;;;5049970;28;11539;-82
2023/05/19 05:04:09;;;;;;;;;27.50;24.25;;;;;;;;5048828;28;11633;-82
2023/05/19 05:06:39;;;;;;;;;25.25;24.00;;;;;;;;5048664;28;11574;-82
2023/05/19 05:09:09;;;;;;;;;24.75;23.25;;;;;;;;5048033;28;11529;-81
2023/05/19 05:11:37;;;;;;;;;24.75;22.75;;;;;;;;5037303;28;11665;-82
2023/05/19 05:14:04;;;;;;;;;29.25;24.75;;;;;;;;5045446;28;11532;-79
2023/05/19 05:16:32;;;;;;;;;24.50;24.50;;;;;;;;5046798;28;11659;-81
2023/05/19 05:19:00;;;;;;;;;21.75;21.75;;;;;;;;5042217;28;11591;-82
2023/05/19 05:21:28;;;;;;;;;33.50;29.00;;;;;;;;5046167;28;11514;-82
2023/05/19 05:23:56;;;;;;;;;24.50;23.50;;;;;;;;5050061;28;11539;-81
2023/05/19 05:26:30;;;;;;;;;25.25;25.25;;;;;;;;5042200;28;11505;-80
2023/05/19 05:28:58;;;;;;;;;24.75;20.50;;;;;;;;5044575;28;11693;-79
2023/05/19 05:31:25;;;;;;;;;25.00;23.25;;;;;;;;5044551;28;11509;-85
2023/05/19 05:33:52;;;;;;;;;19.25;13.25;;;;;;;;5046044;28;11550;-82
2023/05/19 05:36:20;;;;;;;;;26.50;24.75;;;;;;;;5040845;28;11571;-81
2023/05/19 05:38:47;;;;;;;;;27.75;22.00;;;;;;;;5051523;28;11516;-82
2023/05/19 05:41:15;;;;;;;;;25.75;24.25;;;;;;;;5051239;28;11526;-82
2023/05/19 05:43:43;;;;;;;;;27.50;25.25;;;;;;;;5051260;28;11515;-81
2023/05/19 05:46:11;;;;;;;;;25.00;19.50;;;;;;;;5051923;28;11628;-83
2023/05/19 05:48:40;;;;;;;;;19.50;19.50;;;;;;;;5051066;28;11515;-82
2023/05/19 05:51:08;;;;;;;;;23.00;21.50;;;;;;;;5051030;28;11542;-82
2023/05/19 05:53:40;;;;;;;;;27.50;23.50;;;;;;;;5050686;28;11641;-83
2023/05/19 05:56:09;;;;;;;;;23.75;20.50;;;;;;;;5050986;28;12439;-83
2023/05/19 05:58:36;;;;;;;;;28.75;26.00;;;;;;;;5050297;28;11513;-82
2023/05/19 06:01:09;;;;;;;;;27.25;21.25;;;;;;;;5050886;28;11226;-82
2023/05/19 06:03:36;;;;;;;;;26.50;26.50;;;;;;;;5047449;28;11299;-82
2023/05/19 06:06:04;;;;;;;;;24.75;23.00;;;;;;;;5050792;28;11535;-82
2023/05/19 06:08:31;;;;;;;;;26.25;26.25;;;;;;;;5050033;28;11564;-80
2023/05/19 06:10:59;;;;;;;;;29.50;23.00;;;;;;;;5050514;28;11645;-81
2023/05/19 06:13:26;;;;;;;;;21.25;21.00;;;;;;;;5049225;28;11530;-80
2023/05/19 06:15:53;;;;;;;;;21.50;21.50;;;;;;;;5050261;28;11240;-80
2023/05/19 06:18:21;;;;;;;;;30.00;26.00;;;;;;;;5050470;28;11168;-81
2023/05/19 06:20:49;;;;;;;;;29.25;28.00;;;;;;;;5048741;28;11173;-84
2023/05/19 06:23:16;;;;;;;;;21.25;20.25;;;;;;;;5050026;28;11193;-80
2023/05/19 06:25:43;;;;;;;;;22.25;21.75;;;;;;;;5049814;28;10850;-78
2023/05/19 06:28:10;;;;;;;;;22.75;22.75;;;;;;;;5050372;28;11987;-79
2023/05/19 06:30:38;;;;;;;;;22.25;21.25;;;;;;;;5049393;28;10816;-79
2023/05/19 06:33:05;;;;;;;;;24.25;22.50;;;;;;;;5039515;28;11062;-80
2023/05/19 06:35:33;;;;;;;;;19.50;17.00;;;;;;;;5049730;28;11828;-78
2023/05/19 06:38:00;;;;;;;;;20.00;20.00;;;;;;;;5050041;28;10699;-81
2023/05/19 06:40:28;;;;;;;;;20.50;18.00;;;;;;;;5049864;28;10886;-81
2023/05/19 06:42:55;;;;;;;;;21.75;21.75;;;;;;;;5050243;28;10829;-81
2023/05/19 06:45:25;;;;;;;;;21.00;21.00;;;;;;;;5049698;28;10743;-79
2023/05/19 06:47:53;;;;;;;;;28.25;24.75;;;;;;;;5050280;28;10665;-82
2023/05/19 06:50:20;;;;;;;;;14.00;14.00;;;;;;;;5051163;28;10647;-81
2023/05/19 06:52:50;;;;;;;;;22.75;22.75;;;;;;;;5051818;28;10802;-80
2023/05/19 06:55:17;;;;;;;;;29.00;22.25;;;;;;;;5050725;28;10598;-81
2023/05/19 06:57:45;;;;;;;;;23.75;21.25;;;;;;;;5043384;28;10566;-80
2023/05/19 07:00:13;;;;;;;;;16.25;16.25;;;;;;;;5041614;28;10617;-79
2023/05/19 07:02:40;;;;;;;;;24.75;22.75;;;;;;;;5049872;28;10679;-80
2023/05/19 07:05:08;;;;;;;;;24.25;21.75;;;;;;;;5045646;28;10544;-80
2023/05/19 07:07:35;;;;;;;;;24.75;20.50;;;;;;;;5041007;28;10370;-80
2023/05/19 07:10:04;;;;;;;;;29.00;24.00;;;;;;;;5049121;28;10473;-80
2023/05/19 07:12:31;;;;;;;;;24.50;21.25;;;;;;;;5049498;28;10430;-81
2023/05/19 07:14:58;;;;;;;;;24.25;21.50;;;;;;;;5048904;28;10322;-80
2023/05/19 07:17:26;;;;;;;;;22.50;18.75;;;;;;;;5049549;28;10177;-80
2023/05/19 07:19:55;;;;;;;;;17.75;17.00;;;;;;;;5048733;28;10182;-80
2023/05/19 07:22:23;;;;;;;;;18.25;18.25;;;;;;;;5047276;28;11082;-80
2023/05/19 07:24:50;;;;;;;;;27.00;21.00;;;;;;;;5037053;28;9933;-80
2023/05/19 07:27:19;;;;;;;;;21.25;19.00;;;;;;;;5048478;28;10098;-80
2023/05/19 07:29:47;;;;;;;;;21.25;19.25;;;;;;;;5049539;28;10730;-81
2023/05/19 07:32:14;;;;;;;;;18.00;18.00;;;;;;;;5048177;28;9827;-81
2023/05/19 07:34:41;;;;;;;;;20.25;19.00;;;;;;;;5049141;28;9880;-81
2023/05/19 07:37:08;;;;;;;;;19.75;17.50;;;;;;;;5047962;28;9727;-80
2023/05/19 07:39:36;;;;;;;;;21.00;19.25;;;;;;;;5048805;28;9804;-80
2023/05/19 07:42:03;;;;;;;;;18.25;17.25;;;;;;;;5049053;28;9628;-80
2023/05/19 07:44:33;;;;;;;;;17.00;17.00;;;;;;;;5048866;28;9574;-77
2023/05/19 07:47:00;;;;;;;;;16.67;16.33;;;;;;;;5048621;28;9476;-77
2023/05/19 07:49:30;;;;;;;;;21.67;18.33;;;;;;;;5048980;28;9329;-77
2023/05/19 07:51:57;;;;;;;;;21.33;19.33;;;;;;;;5048518;28;9305;-77
2023/05/19 07:54:25;;;;;;;;;20.67;20.67;;;;;;;;5048410;28;9285;-77
2023/05/19 07:56:52;;;;;;;;;19.67;19.67;;;;;;;;5048629;28;10033;-78
2023/05/19 07:59:19;;;;;;;;;19.00;19.00;;;;;;;;5048529;28;9377;-79
2023/05/19 08:01:50;;;;;;;;;21.33;18.00;;;;;;;;5065547;28;9066;-79
2023/05/19 08:04:17;;;;;;;;;15.00;14.25;;;;;;;;5072278;28;9087;-79
2023/05/19 08:06:44;;;;;;;;;21.25;18.25;;;;;;;;5068600;28;8858;-78
2023/05/19 08:09:12;;;;;;;;;18.00;17.00;;;;;;;;5069282;28;8877;-80
2023/05/19 08:11:39;;;;;;;;;19.25;17.75;;;;;;;;5069208;28;8855;-79
2023/05/19 08:14:06;;;;;;;;;16.00;15.25;;;;;;;;5068679;28;8888;-79
2023/05/19 08:16:33;;;;;;;;;15.25;14.25;;;;;;;;5066890;28;8859;-77
2023/05/19 08:19:04;;;;;;;;;13.00;12.25;;;;;;;;5068501;28;8883;-79
2023/05/19 08:21:33;;;;;;;;;19.00;16.75;;;;;;;;5078205;28;8866;-82
2023/05/19 08:24:00;;;;;;;;;23.50;20.50;;;;;;;;5068593;28;8863;-79
2023/05/19 08:26:29;;;;;;;;;19.00;15.25;;;;;;;;5080310;28;8920;-78
2023/05/19 08:28:56;;;;;;;;;21.25;18.00;;;;;;;;5067750;28;8874;-78
2023/05/19 08:31:31;;;;;;;;;17.75;17.75;;;;;;;;5056723;28;8806;-79
2023/05/19 08:33:58;;;;;;;;;26.00;23.25;;;;;;;;5048763;28;8845;-79
2023/05/19 08:36:29;;;;;;;;;20.00;17.50;;;;;;;;5049161;28;9004;-79
2023/05/19 08:38:56;;;;;;;;;20.00;17.75;;;;;;;;5049347;28;8846;-79
2023/05/19 08:41:28;;;;;;;;;20.00;17.00;;;;;;;;5049252;28;8873;-79
2023/05/19 08:43:55;;;;;;;;;19.50;19.50;;;;;;;;5048220;28;8869;-78
2023/05/19 08:46:22;;;;;;;;;21.25;18.00;;;;;;;;5037899;28;8830;-79
2023/05/19 08:48:56;;;;;;;;;11.50;8.50;;;;;;;;5047964;28;8869;-78
2023/05/19 08:51:33;;;;;;;;;20.25;18.00;;;;;;;;5038202;28;8865;-78
2023/05/19 08:54:08;;;;;;;;;17.00;17.00;;;;;;;;5047579;28;8857;-79
2023/05/19 08:56:35;;;;;;;;;19.25;17.25;;;;;;;;5048277;28;8838;-79
2023/05/19 08:59:03;;;;;;;;;17.25;17.25;;;;;;;;5048303;28;8865;-80
2023/05/19 09:01:30;;;;;;;;;13.75;12.75;;;;;;;;5043318;28;8914;-76
2023/05/19 09:03:58;;;;;;;;;16.00;15.33;;;;;;;;5045834;28;9763;-75
2023/05/19 09:06:25;;;;;;;;;18.50;17.75;;;;;;;;5046525;28;8885;-75
2023/05/19 09:08:59;;;;;;;;;14.50;12.00;;;;;;;;5046842;28;8872;-75
2023/05/19 09:11:26;;;;;;;;;13.50;13.50;;;;;;;;5046864;28;8834;-77
2023/05/19 09:13:56;;;;;;;;;14.00;12.00;;;;;;;;5048035;28;8861;-75
2023/05/19 09:16:23;;;;;;;;;15.75;15.75;;;;;;;;5046925;28;9744;-76
2023/05/19 09:18:57;;;;;;;;;14.25;13.75;;;;;;;;5047748;28;9001;-75
2023/05/19 09:21:30;;;;;;;;;13.50;13.50;;;;;;;;5045455;28;8869;-74
2023/05/19 09:24:05;;;;;;;;;11.25;11.00;;;;;;;;5046942;28;9667;-75
2023/05/19 09:26:38;;;;;;;;;13.75;13.75;;;;;;;;5035948;28;8866;-75
2023/05/19 09:29:15;;;;;;;;;14.00;14.00;;;;;;;;5046921;28;8988;-76
2023/05/19 09:31:50;;;;;;;;;13.50;13.50;;;;;;;;5045909;28;8810;-76
2023/05/19 09:34:17;;;;;;;;;13.25;12.25;;;;;;;;5046949;28;8861;-75
2023/05/19 09:36:48;;;;;;;;;11.25;11.25;;;;;;;;5047341;28;9003;-75
2023/05/19 09:39:17;;;;;;;;;16.50;14.00;;;;;;;;5046454;28;8860;-76
2023/05/19 09:41:44;;;;;;;;;13.00;13.00;;;;;;;;5047220;28;8974;-76
2023/05/19 09:44:21;;;;;;;;;8.75;7.00;;;;;;;;5047255;28;9702;-76
2023/05/19 09:46:49;;;;;;;;;13.75;12.75;;;;;;;;5047500;28;9647;-77
2023/05/19 09:49:21;;;;;;;;;14.75;11.50;;;;;;;;5047538;28;8881;-77
2023/05/19 09:51:51;;;;;;;;;12.75;12.75;;;;;;;;5046934;28;8842;-77
2023/05/19 09:54:23;;;;;;;;;13.75;13.75;;;;;;;;5046745;28;8857;-77
2023/05/19 09:57:00;;;;;;;;;15.25;15.25;;;;;;;;5047167;28;8996;-76
2023/05/19 09:59:28;;;;;;;;;16.50;15.25;;;;;;;;5037899;28;8862;-77
2023/05/19 10:01:56;;;;;;;;;18.50;15.50;;;;;;;;5037158;28;8920;-77
2023/05/19 10:04:25;;;;;;;;;15.25;13.25;;;;;;;;5050562;28;8968;-77
2023/05/19 10:06:53;;;;;;;;;16.50;16.50;;;;;;;;5038912;28;8856;-77
2023/05/19 10:09:24;;;;;;;;;14.75;14.75;;;;;;;;5051697;28;9693;-77
2023/05/19 10:11:53;;;;;;;;;16.75;16.75;;;;;;;;5039564;28;8853;-79
2023/05/19 10:14:21;;;;;;;;;16.00;15.50;;;;;;;;5052343;28;8853;-79
2023/05/19 10:16:50;;;;;;;;;36.00;32.50;;;;;;;;5050782;28;8873;-84
2023/05/19 10:19:21;;;;;;;;;13.80;13.60;;;;;;;;5039388;28;8880;-83
2023/05/19 10:21:48;;;;;;;;;17.80;15.40;;;;;;;;5038053;28;8872;-78
2023/05/19 10:24:15;;;;;;;;;19.00;19.00;;;;;;;;5045436;28;8869;-85
2023/05/19 10:26:47;;;;;;;;;15.40;14.20;;;;;;;;5060100;28;8859;-78
2023/05/19 10:29:14;;;;;;;;;;;;;;;;;;5071016;28;8973;-79
2023/05/19 10:31:42;;;;;;;;;18.20;16.00;;;;;;;;5053609;28;9135;-81
2023/05/19 10:34:39;;;;;;;;;26.75;25.25;;;;;;;;5047031;28;8865;-79
2023/05/19 10:37:14;;;;;;;;;12.80;12.80;;;;;;;;5041957;28;8878;-85
2023/05/19 10:39:43;;;;;;;;;11.20;11.00;;;;;;;;5049265;28;8922;-83
2023/05/19 10:42:18;;;;;;;;;10.00;10.00;;;;;;;;5045757;28;8861;-81
2023/05/19 10:44:57;;;;;;;;;16.40;13.00;;;;;;;;5048441;28;8865;-81
2023/05/19 10:47:25;;;;;;;;;15.60;12.20;;;;;;;;5038648;28;8836;-78
2023/05/19 10:49:53;;;;;;;;;19.60;19.20;;;;;;;;5036797;28;8864;-80
2023/05/19 10:52:21;;;;;;;;;17.60;14.20;;;;;;;;5067966;28;8854;-83
2023/05/19 10:54:50;;;;;;;;;11.20;11.20;;;;;;;;5052870;28;8920;-76
2023/05/19 10:57:18;;;;;;;;;13.60;13.60;;;;;;;;5049733;28;8869;-81
2023/05/19 10:59:46;;;;;;;;;13.20;13.20;;;;;;;;5049882;28;9694;-77
2023/05/19 11:02:39;;;;;;;;;12.40;11.20;;;;;;;;5048971;28;8830;-80
2023/05/19 11:05:11;;;;;;;;;10.40;10.40;;;;;;;;5039308;28;8881;-80
2023/05/19 11:07:42;;;;;;;;;13.80;12.00;;;;;;;;5045049;28;8900;-84
2023/05/19 11:10:10;;;;;;;;;11.80;9.60;;;;;;;;5046545;28;9008;-81
2023/05/19 11:12:43;;;;;;;;;10.80;9.80;;;;;;;;5043319;28;8872;-82
2023/05/19 11:15:12;;;;;;;;;11.20;9.20;;;;;;;;5048872;28;8856;-83
2023/05/19 11:17:41;;;;;;;;;10.00;10.00;;;;;;;;5040100;28;8887;-80
2023/05/19 11:20:11;;;;;;;;;9.80;9.80;;;;;;;;5044481;28;8852;-81
2023/05/19 11:22:38;;;;;;;;;8.80;8.80;;;;;;;;5045597;28;8853;-83
2023/05/19 11:25:06;;;;;;;;;9.00;9.00;;;;;;;;5043056;28;8849;-88
2023/05/19 11:27:37;;;;;;;;;9.00;9.00;;;;;;;;5050304;28;8880;-79
2023/05/19 11:30:13;;;;;;;;;9.00;9.00;;;;;;;;5039145;28;8933;-82
2023/05/19 11:32:42;;;;;;;;;7.40;7.40;;;;;;;;5048252;28;8853;-80
2023/05/19 11:35:10;;;;;;;;;14.60;10.00;;;;;;;;5043326;28;8865;-82
2023/05/19 11:37:39;;;;;;;;;8.20;8.20;;;;;;;;5050848;28;8877;-83
2023/05/19 11:40:07;;;;;;;;;8.80;8.80;;;;;;;;5038872;28;8891;-79
2023/05/19 11:42:35;;;;;;;;;11.00;9.00;;;;;;;;5048870;28;8842;-81
2023/05/19 11:45:03;;;;;;;;;7.20;7.00;;;;;;;;5058252;28;8873;-80
2023/05/19 11:47:32;;;;;;;;;12.20;12.00;;;;;;;;5048622;28;8868;-81
2023/05/19 11:50:00;;;;;;;;;8.00;7.80;;;;;;;;5047599;28;8877;-79
2023/05/19 11:52:27;;;;;;;;;9.80;9.80;;;;;;;;5039946;28;8903;-81
2023/05/19 11:54:55;;;;;;;;;7.20;6.40;;;;;;;;5048779;28;8876;-77
2023/05/19 11:57:22;;;;;;;;;6.40;5.60;;;;;;;;5045796;28;8832;-78
2023/05/19 11:59:52;;;;;;;;;7.80;7.80;;;;;;;;5049303;28;9748;-77
2023/05/19 12:02:20;;;;;;;;;10.60;10.60;;;;;;;;5047841;28;8809;-78
2023/05/19 12:04:49;;;;;;;;;9.60;7.80;;;;;;;;5049322;28;8873;-78
2023/05/19 12:07:18;;;;;;;;;8.60;8.60;;;;;;;;5048306;28;9580;-79
2023/05/19 12:09:46;;;;;;;;;7.60;7.20;;;;;;;;5042461;28;8852;-80
2023/05/19 12:12:15;;;;;;;;;9.20;9.20;;;;;;;;5046468;28;9435;-78
2023/05/19 12:14:43;;;;;;;;;7.40;7.40;;;;;;;;5050556;28;8881;-81
2023/05/19 12:17:13;;;;;;;;;8.80;8.80;;;;;;;;5048746;28;8855;-76
2023/05/19 12:19:41;;;;;;;;;8.00;6.20;;;;;;;;5048190;28;8853;-80
2023/05/19 12:22:10;;;;;;;;;7.40;7.40;;;;;;;;5045533;28;8860;-80
2023/05/19 12:24:38;;;;;;;;;6.80;6.80;;;;;;;;5042832;28;8884;-78
2023/05/19 12:27:12;;;;;;;;;6.80;6.80;;;;;;;;5044886;28;8905;-79
2023/05/19 12:29:40;;;;;;;;;8.00;8.00;;;;;;;;5048325;28;8881;-77
2023/05/19 12:32:08;;;;;;;;;7.80;7.80;;;;;;;;5037937;28;8832;-78
2023/05/19 12:34:37;;;;;;;;;7.80;6.60;;;;;;;;5042444;28;8853;-77
2023/05/19 12:37:04;;;;;;;;;10.00;8.40;;;;;;;;5030059;28;8860;-77
2023/05/19 12:39:33;;;;;;;;;8.80;7.80;;;;;;;;5043141;28;8868;-77
2023/05/19 12:42:04;;;;;;;;;7.40;7.40;;;;;;;;5048060;28;8853;-77
2023/05/19 12:44:31;;;;;;;;;9.00;7.40;;;;;;;;5047175;28;8877;-78
2023/05/19 12:46:59;;;;;;;;;4.60;4.60;;;;;;;;5047961;28;8854;-77
2023/05/19 12:49:26;;;;;;;;;8.60;8.60;;;;;;;;5046986;28;8849;-78
2023/05/19 12:51:53;;;;;;;;;7.40;7.40;;;;;;;;5047596;28;8862;-76
2023/05/19 12:54:21;;;;;;;;;8.20;8.20;;;;;;;;5047773;28;8853;-77
2023/05/19 12:56:53;;;;;;;;;6.40;6.40;;;;;;;;5048154;28;8853;-77
2023/05/19 12:59:24;;;;;;;;;6.20;6.20;;;;;;;;5048335;28;9646;-77
2023/05/19 13:01:57;;;;;;;;;7.40;6.00;;;;;;;;5047827;28;8932;-77
2023/05/19 13:04:25;;;;;;;;;6.00;6.00;;;;;;;;5046665;28;9005;-77
2023/05/19 13:06:53;;;;;;;;;4.60;4.60;;;;;;;;5047789;28;8972;-77
2023/05/19 13:09:20;;;;;;;;;5.40;5.40;;;;;;;;5047550;28;8872;-78
2023/05/19 13:11:50;;;;;;;;;6.20;6.20;;;;;;;;5047091;28;9770;-77
2023/05/19 13:14:19;;;;;;;;;5.60;5.40;;;;;;;;5047282;28;8877;-76
2023/05/19 13:16:46;;;;;;;;;5.60;5.60;;;;;;;;5046845;28;8899;-78
2023/05/19 13:19:14;;;;;;;;;8.60;7.00;;;;;;;;5047201;28;9278;-78
2023/05/19 13:21:42;;;;;;;;;5.00;5.00;;;;;;;;5045632;28;8888;-79
2023/05/19 13:24:09;;;;;;;;;6.40;6.40;;;;;;;;5047412;28;8888;-78
2023/05/19 13:26:36;;;;;;;;;6.20;6.20;;;;;;;;5047372;28;8938;-77
2023/05/19 13:29:04;;;;;;;;;7.20;7.20;;;;;;;;5046850;28;8838;-77
2023/05/19 13:31:32;;;;;;;;;4.80;4.80;;;;;;;;5035403;28;8940;-77
2023/05/19 13:34:00;;;;;;;;;7.60;6.40;;;;;;;;5046973;28;8891;-78
2023/05/19 13:36:27;;;;;;;;;6.20;6.20;;;;;;;;5048403;28;8833;-78
2023/05/19 13:38:54;;;;;;;;;7.20;7.20;;;;;;;;5051028;28;8934;-78
2023/05/19 13:41:25;;;;;;;;;6.00;6.00;;;;;;;;5033300;28;8848;-77
2023/05/19 13:43:52;;;;;;;;;6.00;6.00;;;;;;;;5047129;28;8853;-79
2023/05/19 13:46:19;;;;;;;;;5.60;5.60;;;;;;;;5051100;28;8846;-77
2023/05/19 13:48:48;;;;;;;;;5.60;5.60;;;;;;;;5050812;28;8887;-77
2023/05/19 13:51:15;;;;;;;;;8.60;7.00;;;;;;;;5050899;28;8976;-77
2023/05/19 13:53:42;;;;;;;;;7.00;7.00;;;;;;;;5050769;28;8849;-79
2023/05/19 13:56:09;;;;;;;;;5.80;5.80;;;;;;;;5051956;28;8951;-77
2023/05/19 13:58:36;;;;;;;;;6.60;5.00;;;;;;;;5051863;28;8877;-79
2023/05/19 14:01:04;;;;;;;;;6.60;6.60;;;;;;;;5052809;28;8798;-79
2023/05/19 14:03:31;;;;;;;;;6.60;5.00;;;;;;;;5049472;28;8863;-78
2023/05/19 14:06:00;;;;;;;;;5.80;4.60;;;;;;;;5043612;28;9020;-79
2023/05/19 14:08:27;;;;;;;;;4.60;3.60;;;;;;;;5045100;28;8876;-78
2023/05/19 14:10:55;;;;;;;;;7.20;6.00;;;;;;;;5045138;28;8860;-77
2023/05/19 14:13:23;;;;;;;;;6.00;4.40;;;;;;;;5048894;28;8849;-78
2023/05/19 14:15:50;;;;;;;;;4.40;4.40;;;;;;;;5037985;28;8868;-78
2023/05/19 14:18:17;;;;;;;;;3.40;3.40;;;;;;;;5050027;28;8948;-79
2023/05/19 14:20:44;;;;;;;;;5.80;5.80;;;;;;;;5049371;28;8837;-78
2023/05/19 14:23:14;;;;;;;;;4.60;4.60;;;;;;;;5050139;28;8861;-77
2023/05/19 14:25:41;;;;;;;;;6.80;5.40;;;;;;;;5050136;28;8880;-78
2023/05/19 14:28:09;;;;;;;;;6.80;5.60;;;;;;;;5049960;28;8959;-78
2023/05/19 14:30:37;;;;;;;;;5.20;5.20;;;;;;;;5049455;28;8766;-83
2023/05/19 14:33:04;;;;;;;;;4.20;4.20;;;;;;;;5050954;28;8861;-79
2023/05/19 14:35:31;;;;;;;;;4.60;4.60;;;;;;;;5050590;28;8869;-80
2023/05/19 14:37:58;;;;;;;;;4.00;4.00;;;;;;;;5050161;28;8857;-79
2023/05/19 14:40:29;;;;;;;;;3.80;3.80;;;;;;;;5050169;28;8848;-80